createdAt,value
2018-06-09T00:00:25.172Z,12.00
2018-06-09T00:02:53.513Z,11.70
2018-06-09T00:05:21.852Z,12.30
2018-06-09T00:07:50.229Z,11.10
2018-06-09T00:10:18.574Z,11.40
2018-06-09T00:12:46.952Z,12.13
2018-06-09T00:15:15.475Z,11.70
2018-06-09T00:17:43.763Z,12.03
2018-06-09T00:20:12.124Z,11.47
2018-06-09T00:22:40.468Z,11.67
2018-06-09T00:25:08.541Z,12.27
2018-06-09T00:27:36.553Z,13.27
2018-06-09T00:30:05.249Z,13.50
2018-06-09T00:32:33.579Z,13.27
2018-06-09T00:35:01.933Z,13.13
2018-06-09T00:37:30.243Z,13.47
2018-06-09T00:39:58.646Z,13.80
2018-06-09T00:42:27.024Z,14.37
2018-06-09T00:44:55.365Z,14.50
2018-06-09T00:47:23.419Z,14.80
2018-06-09T00:49:51.790Z,14.57
2018-06-09T00:52:20.112Z,14.60
2018-06-09T00:54:48.455Z,15.70
2018-06-09T00:57:16.746Z,16.37
2018-06-09T00:59:44.814Z,15.73
2018-06-09T01:02:12.874Z,15.10
2018-06-09T01:04:41.224Z,14.87
2018-06-09T01:07:09.503Z,14.93
2018-06-09T01:09:37.848Z,15.00
2018-06-09T01:12:06.128Z,14.93
2018-06-09T01:14:34.557Z,15.47
2018-06-09T01:17:02.890Z,16.10
2018-06-09T01:19:31.338Z,16.60
2018-06-09T01:21:59.380Z,17.07
2018-06-09T01:24:27.696Z,16.73
2018-06-09T01:26:56.033Z,16.27
2018-06-09T01:29:24.344Z,17.77
2018-06-09T01:31:52.704Z,17.67
2018-06-09T01:34:21.001Z,17.57
2018-06-09T01:36:49.391Z,18.57
2018-06-09T01:39:17.685Z,17.13
2018-06-09T01:41:46.001Z,18.30
2018-06-09T01:44:14.305Z,18.73
2018-06-09T01:46:42.613Z,18.27
2018-06-09T01:49:10.997Z,16.97
2018-06-09T01:51:39.369Z,18.20
2018-06-09T01:54:07.358Z,17.87
2018-06-09T01:56:35.674Z,18.07
2018-06-09T01:59:03.980Z,17.20
2018-06-09T02:01:32.303Z,19.57
2018-06-09T02:04:00.608Z,20.70
2018-06-09T02:06:28.930Z,21.10
2018-06-09T02:08:57.222Z,22.30
2018-06-09T02:11:25.542Z,21.07
2018-06-09T02:13:53.830Z,24.20
2018-06-09T02:16:22.137Z,22.53
2018-06-09T02:18:50.505Z,24.50
2018-06-09T02:21:18.810Z,23.27
2018-06-09T02:23:47.179Z,23.90
2018-06-09T02:26:15.544Z,23.30
2018-06-09T02:28:43.926Z,22.50
2018-06-09T02:31:12.260Z,24.03
2018-06-09T02:33:40.349Z,22.23
2018-06-09T02:36:08.428Z,22.40
2018-06-09T02:38:36.705Z,22.50
2018-06-09T02:41:05.021Z,20.80
2018-06-09T02:43:33.384Z,20.10
2018-06-09T02:46:01.767Z,19.30
2018-06-09T02:48:30.033Z,19.87
2018-06-09T02:50:58.356Z,19.80
2018-06-09T02:53:26.695Z,19.90
2018-06-09T02:55:54.991Z,20.40
2018-06-09T02:58:23.273Z,19.90
2018-06-09T03:00:51.608Z,21.13
2018-06-09T03:03:19.908Z,22.67
2018-06-09T03:05:48.236Z,22.93
2018-06-09T03:08:16.530Z,22.57
2018-06-09T03:10:44.863Z,21.57
2018-06-09T03:13:13.167Z,21.33
2018-06-09T03:15:41.569Z,22.13
2018-06-09T03:18:09.909Z,21.87
2018-06-09T03:20:38.266Z,21.90
2018-06-09T03:23:06.560Z,22.13
2018-06-09T03:25:34.840Z,22.43
2018-06-09T03:28:03.245Z,23.27
2018-06-09T03:30:31.551Z,23.43
2018-06-09T03:32:59.883Z,24.73
2018-06-09T03:35:28.236Z,24.77
2018-06-09T03:37:56.569Z,24.60
2018-06-09T03:40:24.875Z,25.43
2018-06-09T03:42:53.202Z,27.60
2018-06-09T03:45:21.535Z,28.43
2018-06-09T03:47:49.831Z,26.93
2018-06-09T03:50:18.112Z,27.37
2018-06-09T03:52:46.191Z,28.97
2018-06-09T03:55:14.214Z,29.20
2018-06-09T03:57:42.545Z,30.10
2018-06-09T04:00:10.628Z,30.80
2018-06-09T04:02:38.962Z,29.57
2018-06-09T04:05:07.328Z,31.80
2018-06-09T04:07:35.660Z,29.77
2018-06-09T04:10:03.997Z,31.70
2018-06-09T04:12:32.307Z,31.00
2018-06-09T04:15:00.391Z,31.60
2018-06-09T04:17:28.698Z,30.87
2018-06-09T04:19:56.977Z,31.20
2018-06-09T04:22:25.315Z,30.83
2018-06-09T04:24:53.631Z,28.40
2018-06-09T04:27:21.980Z,29.27
2018-06-09T04:29:50.299Z,30.40
2018-06-09T04:32:18.627Z,29.87
2018-06-09T04:34:46.900Z,31.33
2018-06-09T04:37:15.227Z,30.83
2018-06-09T04:39:43.559Z,30.53
2018-06-09T04:42:11.872Z,27.83
2018-06-09T04:44:40.200Z,29.37
2018-06-09T04:47:08.544Z,28.70
2018-06-09T04:49:36.818Z,28.43
2018-06-09T04:52:05.160Z,25.97
2018-06-09T04:54:33.446Z,26.37
2018-06-09T04:57:01.789Z,27.40
2018-06-09T04:59:33.158Z,24.13
2018-06-09T05:02:02.194Z,26.53
2018-06-09T05:04:30.505Z,25.23
2018-06-09T05:06:58.547Z,30.70
2018-06-09T05:09:26.839Z,30.13
2018-06-09T05:11:54.890Z,30.60
2018-06-09T05:14:23.234Z,32.47
2018-06-09T05:16:51.684Z,30.87
2018-06-09T05:19:19.965Z,31.03
2018-06-09T05:21:48.271Z,31.23
2018-06-09T05:24:16.640Z,31.43
2018-06-09T05:26:45.037Z,33.47
2018-06-09T05:29:13.369Z,29.10
2018-06-09T05:31:41.679Z,29.57
2018-06-09T05:34:10.055Z,28.47
2018-06-09T05:36:38.467Z,29.70
2018-06-09T05:39:07.749Z,29.13
2018-06-09T05:41:36.115Z,28.27
2018-06-09T05:44:04.435Z,28.10
2018-06-09T05:46:32.554Z,28.03
2018-06-09T05:49:00.822Z,27.07
2018-06-09T05:51:29.115Z,26.70
2018-06-09T05:53:57.415Z,26.87
2018-06-09T05:56:25.808Z,24.60
2018-06-09T05:58:54.102Z,26.37
2018-06-09T06:01:22.404Z,25.33
2018-06-09T06:03:50.724Z,25.87
2018-06-09T06:06:19.022Z,25.47
2018-06-09T06:08:47.314Z,23.07
2018-06-09T06:11:15.646Z,23.37
2018-06-09T06:13:43.955Z,24.90
2018-06-09T06:16:11.982Z,23.90
2018-06-09T06:18:40.290Z,24.93
2018-06-09T06:21:08.572Z,26.20
2018-06-09T06:23:36.645Z,25.90
2018-06-09T06:26:04.933Z,26.87
2018-06-09T06:28:33.366Z,26.37
2018-06-09T06:31:01.908Z,23.03
2018-06-09T06:33:30.309Z,25.13
2018-06-09T06:35:58.632Z,24.03
2018-06-09T06:38:26.994Z,25.93
2018-06-09T06:40:55.315Z,25.87
2018-06-09T06:43:23.647Z,24.40
2018-06-09T06:45:51.967Z,24.83
2018-06-09T06:48:20.329Z,24.57
2018-06-09T06:50:48.702Z,24.40
2018-06-09T06:53:17.133Z,24.63
2018-06-09T06:55:45.454Z,23.57
2018-06-09T06:58:13.860Z,23.50
2018-06-09T07:00:41.929Z,23.10
2018-06-09T07:03:10.299Z,22.97
2018-06-09T07:05:38.386Z,23.30
2018-06-09T07:08:06.706Z,21.77
2018-06-09T07:10:35.004Z,21.30
2018-06-09T07:13:03.422Z,23.67
2018-06-09T07:15:31.725Z,21.63
2018-06-09T07:18:00.120Z,21.53
2018-06-09T07:20:28.458Z,20.97
2018-06-09T07:22:56.877Z,19.57
2018-06-09T07:25:25.272Z,20.60
2018-06-09T07:27:53.640Z,19.23
2018-06-09T07:30:22.015Z,19.43
2018-06-09T07:32:50.545Z,18.90
2018-06-09T07:35:18.961Z,20.47
2018-06-09T07:37:47.264Z,21.23
2018-06-09T07:40:15.596Z,20.27
2018-06-09T07:42:43.937Z,19.03
2018-06-09T07:45:11.988Z,21.07
2018-06-09T07:47:40.312Z,19.77
2018-06-09T07:50:08.788Z,19.67
2018-06-09T07:52:37.091Z,20.90
2018-06-09T07:55:05.592Z,20.67
2018-06-09T07:57:33.972Z,19.97
2018-06-09T08:00:02.327Z,18.40
2018-06-09T08:02:30.660Z,19.20
2018-06-09T08:07:25.637Z,18.67
2018-06-09T08:09:54.088Z,19.07
2018-06-09T08:12:22.481Z,19.83
2018-06-09T08:14:50.847Z,19.57
2018-06-09T08:17:19.287Z,19.17
2018-06-09T08:19:47.600Z,17.80
2018-06-09T08:22:16.170Z,17.83
2018-06-09T08:24:44.613Z,17.33
2018-06-09T08:27:13.072Z,18.13
2018-06-09T08:29:41.190Z,17.67
2018-06-09T08:32:09.677Z,18.33
2018-06-09T08:34:38.116Z,17.60
2018-06-09T08:37:06.966Z,18.20
2018-06-09T08:39:35.201Z,17.20
2018-06-09T08:42:03.981Z,16.43
2018-06-09T08:44:32.019Z,15.80
2018-06-09T08:47:00.146Z,16.87
2018-06-09T08:49:28.573Z,16.23
2018-06-09T08:51:56.915Z,16.67
2018-06-09T08:54:25.309Z,15.77
2018-06-09T08:56:53.729Z,16.13
2018-06-09T08:59:22.070Z,14.23
2018-06-09T09:01:50.527Z,15.33
2018-06-09T09:04:18.895Z,14.87
2018-06-09T09:06:47.289Z,15.17
2018-06-09T09:09:15.606Z,15.60
2018-06-09T09:11:43.915Z,14.50
2018-06-09T09:14:12.063Z,15.60
2018-06-09T09:16:40.457Z,15.80
2018-06-09T09:19:08.818Z,15.67
2018-06-09T09:21:37.131Z,16.03
2018-06-09T09:24:05.291Z,14.80
2018-06-09T09:26:37.933Z,15.90
2018-06-09T09:29:06.362Z,14.60
2018-06-09T09:31:34.420Z,15.90
2018-06-09T09:34:02.490Z,14.17
2018-06-09T09:36:30.827Z,14.97
2018-06-09T09:38:59.149Z,14.43
2018-06-09T09:41:27.243Z,14.23
2018-06-09T09:43:55.595Z,14.27
2018-06-09T09:46:23.736Z,14.07
2018-06-09T09:48:52.132Z,14.07
2018-06-09T09:51:20.467Z,12.63
2018-06-09T09:53:48.888Z,13.77
2018-06-09T09:56:17.251Z,12.70
2018-06-09T09:58:45.627Z,13.17
2018-06-09T10:01:13.958Z,13.20
2018-06-09T10:03:41.997Z,13.03
2018-06-09T10:06:10.345Z,12.50
2018-06-09T10:08:38.660Z,13.17
2018-06-09T10:11:06.810Z,12.70
2018-06-09T10:13:35.228Z,13.30
2018-06-09T10:16:03.651Z,12.97
2018-06-09T10:18:31.974Z,12.60
2018-06-09T10:21:00.042Z,13.30
2018-06-09T10:23:28.227Z,13.10
2018-06-09T10:25:56.424Z,13.67
2018-06-09T10:28:25.102Z,13.60
2018-06-09T10:30:53.796Z,12.57
2018-06-09T10:33:22.346Z,12.30
2018-06-09T10:35:51.048Z,12.73
2018-06-09T10:38:19.163Z,12.63
2018-06-09T10:40:47.494Z,12.30
2018-06-09T10:43:15.530Z,12.73
2018-06-09T10:45:43.907Z,11.87
2018-06-09T10:48:12.267Z,11.53
2018-06-09T10:50:40.687Z,11.17
2018-06-09T10:53:08.779Z,12.03
2018-06-09T10:55:37.123Z,12.17
2018-06-09T10:58:05.721Z,12.53
2018-06-09T11:00:33.840Z,12.33
2018-06-09T11:03:02.136Z,12.07
2018-06-09T11:05:30.572Z,11.27
2018-06-09T11:07:59.023Z,11.60
2018-06-09T11:10:27.104Z,11.30
2018-06-09T11:12:56.374Z,11.30
2018-06-09T11:15:24.733Z,11.47
2018-06-09T11:17:53.115Z,11.10
2018-06-09T11:20:21.547Z,11.13
2018-06-09T11:22:49.700Z,11.63
2018-06-09T11:25:18.060Z,11.80
2018-06-09T11:27:46.453Z,11.60
2018-06-09T11:30:14.783Z,11.83
2018-06-09T11:32:43.163Z,11.33
2018-06-09T11:35:11.468Z,11.20
2018-06-09T11:37:39.827Z,10.70
2018-06-09T11:40:08.183Z,11.40
2018-06-09T11:42:36.595Z,11.20
2018-06-09T11:45:05.125Z,11.70
2018-06-09T11:47:33.498Z,11.00
2018-06-09T11:50:02.554Z,10.40
2018-06-09T11:52:30.933Z,11.20
2018-06-09T11:54:59.383Z,10.57
2018-06-09T11:57:27.745Z,11.23
2018-06-09T11:59:56.039Z,10.87
2018-06-09T12:02:24.324Z,10.90
2018-06-09T12:04:52.725Z,11.50
2018-06-09T12:07:21.135Z,11.50
2018-06-09T12:09:49.540Z,10.23
2018-06-09T12:12:17.893Z,11.57
2018-06-09T12:14:46.583Z,10.57
2018-06-09T12:17:15.416Z,11.00
2018-06-09T12:19:43.820Z,11.03
2018-06-09T12:22:12.230Z,11.37
2018-06-09T12:24:40.581Z,10.47
2018-06-09T12:27:09.624Z,11.20
2018-06-09T12:29:37.958Z,10.58
2018-06-09T12:32:06.315Z,11.13
2018-06-09T12:34:34.665Z,10.48
2018-06-09T12:37:02.991Z,10.20
2018-06-09T12:39:31.370Z,11.80
2018-06-09T12:41:59.759Z,10.23
2018-06-09T12:44:28.086Z,10.85
2018-06-09T12:46:56.555Z,9.93
2018-06-09T12:49:25.091Z,10.17
2018-06-09T12:51:53.477Z,10.63
2018-06-09T12:54:22.199Z,9.75
2018-06-09T12:56:50.745Z,10.15
2018-06-09T12:59:19.168Z,10.18
2018-06-09T13:01:48.118Z,10.55
2018-06-09T13:04:16.973Z,10.90
2018-06-09T13:06:45.310Z,10.20
2018-06-09T13:09:13.767Z,9.53
2018-06-09T13:11:42.073Z,10.45
2018-06-09T13:14:10.481Z,10.00
2018-06-09T13:16:38.875Z,10.18
2018-06-09T13:19:07.375Z,9.55
2018-06-09T13:21:42.268Z,9.65
2018-06-09T13:24:10.652Z,9.60
2018-06-09T13:26:39.048Z,9.58
2018-06-09T13:29:07.385Z,9.68
2018-06-09T13:31:36.328Z,9.63
2018-06-09T13:34:04.692Z,9.75
2018-06-09T13:36:33.027Z,9.73
2018-06-09T13:39:01.457Z,9.40
2018-06-09T13:41:29.830Z,10.58
2018-06-09T13:43:58.750Z,10.08
2018-06-09T13:46:27.116Z,25.65
2018-06-09T13:48:55.481Z,13.48
2018-06-09T13:51:23.803Z,10.58
2018-06-09T13:53:52.142Z,10.80
2018-06-09T13:56:20.487Z,10.30
2018-06-09T13:58:48.885Z,9.18
2018-06-09T14:01:17.279Z,10.53
2018-06-09T14:03:45.564Z,10.05
2018-06-09T14:06:13.952Z,29.18
2018-06-09T14:08:42.370Z,11.25
2018-06-09T14:11:10.676Z,11.38
2018-06-09T14:13:38.989Z,11.22
2018-06-09T14:16:07.444Z,14.70
2018-06-09T14:18:35.762Z,11.03
2018-06-09T14:21:04.073Z,10.72
2018-06-09T14:23:32.375Z,10.72
2018-06-09T14:26:00.721Z,10.60
2018-06-09T14:28:29.117Z,10.60
2018-06-09T14:30:57.459Z,9.18
2018-06-09T14:33:26.020Z,12.60
2018-06-09T14:35:54.468Z,10.60
2018-06-09T14:38:22.807Z,10.23
2018-06-09T14:40:51.205Z,10.45
2018-06-09T14:43:19.636Z,11.30
2018-06-09T14:45:48.028Z,12.37
2018-06-09T14:48:16.561Z,12.90
2018-06-09T14:50:45.051Z,17.87
2018-06-09T14:53:13.516Z,17.50
2018-06-09T14:55:42.072Z,14.37
2018-06-09T14:58:10.527Z,12.87
2018-06-09T15:00:38.851Z,13.20
2018-06-09T15:03:07.516Z,14.70
2018-06-09T15:05:35.921Z,14.57
2018-06-09T15:08:04.847Z,14.03
2018-06-09T15:10:33.239Z,14.60
2018-06-09T15:13:01.754Z,16.07
2018-06-09T15:15:30.080Z,15.23
2018-06-09T15:17:58.540Z,14.87
2018-06-09T15:20:27.188Z,15.33
2018-06-09T15:22:55.619Z,16.10
2018-06-09T15:25:23.956Z,15.63
2018-06-09T15:27:52.476Z,16.30
2018-06-09T15:30:22.017Z,16.57
2018-06-09T15:32:50.400Z,17.17
2018-06-09T15:35:18.880Z,18.60
2018-06-09T15:37:47.206Z,19.17
2018-06-09T15:40:15.634Z,19.43
2018-06-09T15:42:44.062Z,22.40
2018-06-09T15:45:12.417Z,22.00
2018-06-09T15:47:40.738Z,26.60
2018-06-09T15:50:09.054Z,27.00
2018-06-09T15:52:37.469Z,30.73
2018-06-09T15:55:05.786Z,29.10
2018-06-09T15:57:34.215Z,31.20
2018-06-09T16:00:02.651Z,29.47
2018-06-09T16:02:30.999Z,29.53
2018-06-09T16:04:59.445Z,19.93
2018-06-09T16:07:27.891Z,16.33
2018-06-09T16:09:56.356Z,15.37
2018-06-09T16:12:24.848Z,14.80
2018-06-09T16:14:53.257Z,12.00
2018-06-09T16:17:21.770Z,10.50
2018-06-09T16:19:50.151Z,9.20
2018-06-09T16:22:18.462Z,8.37
2018-06-09T16:24:46.796Z,8.73
2018-06-09T16:27:15.730Z,8.90
2018-06-09T16:29:44.143Z,8.13
2018-06-09T16:32:12.501Z,8.40
2018-06-09T16:34:40.805Z,8.87
2018-06-09T16:37:09.207Z,9.30
2018-06-09T16:39:37.544Z,9.43
2018-06-09T16:44:35.183Z,10.23
2018-06-09T16:47:03.799Z,10.47
2018-06-09T16:49:32.224Z,10.07
2018-06-09T16:52:00.269Z,11.67
2018-06-09T16:54:28.620Z,12.07
2018-06-09T16:56:57.015Z,12.37
2018-06-09T16:59:25.748Z,13.17
2018-06-09T17:01:54.068Z,14.10
2018-06-09T17:04:22.701Z,13.97
2018-06-09T17:06:50.741Z,12.17
2018-06-09T17:09:19.135Z,14.20
2018-06-09T17:11:47.471Z,14.83
2018-06-09T17:14:15.787Z,14.17
2018-06-09T17:16:44.158Z,14.10
2018-06-09T17:19:12.564Z,15.60
2018-06-09T17:21:40.618Z,16.10
2018-06-09T17:24:08.650Z,17.97
2018-06-09T17:26:36.967Z,18.43
2018-06-09T17:29:05.001Z,23.03
2018-06-09T17:31:33.378Z,23.77
2018-06-09T17:34:01.949Z,24.90
2018-06-09T17:36:30.295Z,25.53
2018-06-09T17:38:58.648Z,27.87
2018-06-09T17:41:26.763Z,28.97
2018-06-09T17:43:55.237Z,29.17
2018-06-09T17:46:23.242Z,28.60
2018-06-09T17:48:51.603Z,30.37
2018-06-09T17:51:19.997Z,29.10
2018-06-09T17:53:48.340Z,29.40
2018-06-09T17:58:57.084Z,31.03
2018-06-09T18:01:25.522Z,33.20
2018-06-09T18:03:53.874Z,30.03
2018-06-09T18:06:22.268Z,31.63
2018-06-09T18:08:50.596Z,31.23
2018-06-09T18:11:19.004Z,32.80
2018-06-09T18:13:47.329Z,30.20
2018-06-09T18:16:15.386Z,30.17
2018-06-09T18:18:43.466Z,30.57
2018-06-09T18:21:11.923Z,30.57
2018-06-09T18:23:40.203Z,31.80
2018-06-09T18:26:08.599Z,30.90
2018-06-09T18:30:16.677Z,31.17
2018-06-09T18:32:45.146Z,30.77
2018-06-09T18:35:13.472Z,31.47
2018-06-09T18:37:41.832Z,30.53
2018-06-09T18:40:10.202Z,31.93
2018-06-09T18:42:38.538Z,31.97
2018-06-09T18:45:06.962Z,33.63
2018-06-09T18:47:35.292Z,32.20
2018-06-09T18:50:03.727Z,32.97
2018-06-09T18:52:32.129Z,41.40
2018-06-09T18:55:00.480Z,39.13
2018-06-09T18:57:28.812Z,68.67
2018-06-09T18:59:57.139Z,50.23
2018-06-09T19:02:25.516Z,31.90
2018-06-09T19:04:53.799Z,35.80
2018-06-09T19:07:22.113Z,33.47
2018-06-09T19:09:50.418Z,29.07
2018-06-09T19:12:18.822Z,29.03
2018-06-09T19:14:47.225Z,27.73
2018-06-09T19:17:15.554Z,27.23
2018-06-09T19:19:43.892Z,26.50
2018-06-09T19:22:12.255Z,25.80
2018-06-09T19:24:40.569Z,23.47
2018-06-09T19:27:08.944Z,18.57
2018-06-09T19:29:37.330Z,13.27
2018-06-09T19:32:05.734Z,10.00
2018-06-09T19:34:34.061Z,8.90
2018-06-09T19:37:02.347Z,8.20
2018-06-09T19:39:30.626Z,8.30
2018-06-09T19:41:59.042Z,8.20
2018-06-09T19:44:27.342Z,8.10
2018-06-09T19:46:55.663Z,7.40
2018-06-09T19:49:24.075Z,7.17
2018-06-09T19:51:52.453Z,7.37
2018-06-09T19:54:20.880Z,7.67
2018-06-09T19:56:49.164Z,7.73
2018-06-09T19:59:17.622Z,6.70
2018-06-09T20:01:45.957Z,7.80
2018-06-09T20:04:14.250Z,7.70
2018-06-09T20:06:42.528Z,7.87
2018-06-09T20:09:10.964Z,7.83
2018-06-09T20:11:39.275Z,8.20
2018-06-09T20:14:07.563Z,7.60
2018-06-09T20:16:35.839Z,8.00
2018-06-09T20:19:04.209Z,7.23
2018-06-09T20:21:32.601Z,7.33
2018-06-09T20:24:00.966Z,7.60
2018-06-09T20:26:29.302Z,7.13
2018-06-09T20:28:57.624Z,7.87
2018-06-09T20:31:26.051Z,8.17
2018-06-09T20:33:54.704Z,8.20
2018-06-09T20:36:29.408Z,8.60
2018-06-09T20:38:57.995Z,8.07
2018-06-09T20:41:26.656Z,7.70
2018-06-09T20:43:55.452Z,7.50
2018-06-09T20:46:23.835Z,7.70
2018-06-09T20:48:52.316Z,7.57
2018-06-09T20:51:20.689Z,8.00
2018-06-09T20:53:49.445Z,8.60
2018-06-09T20:56:17.736Z,7.80
2018-06-09T20:58:46.016Z,7.07
2018-06-09T21:01:14.378Z,7.47
2018-06-09T21:03:42.713Z,7.80
2018-06-09T21:06:11.175Z,7.60
2018-06-09T21:08:39.477Z,8.13
2018-06-09T21:11:07.787Z,7.93
2018-06-09T21:13:36.159Z,9.07
2018-06-09T21:16:04.507Z,8.80
2018-06-09T21:18:32.793Z,8.17
2018-06-09T21:21:03.165Z,8.50
2018-06-09T21:23:31.518Z,8.70
2018-06-09T21:25:59.810Z,9.50
2018-06-09T21:28:28.190Z,9.23
2018-06-09T21:31:00.759Z,8.57
2018-06-09T21:33:45.731Z,9.53
2018-06-09T21:36:14.589Z,8.43
2018-06-09T21:38:48.407Z,9.07
2018-06-09T21:41:22.771Z,8.70
2018-06-09T21:43:52.739Z,8.83
2018-06-09T21:46:26.531Z,8.37
2018-06-09T21:48:54.823Z,9.20
2018-06-09T21:51:23.221Z,9.27
2018-06-09T21:53:51.592Z,8.93
2018-06-09T21:56:19.962Z,8.77
2018-06-09T21:58:49.003Z,8.47
2018-06-09T22:01:17.346Z,8.30
2018-06-09T22:03:45.697Z,8.13
2018-06-09T22:06:14.083Z,8.13
2018-06-09T22:08:42.362Z,8.87
2018-06-09T22:11:10.760Z,9.57
2018-06-09T22:13:40.022Z,9.93
2018-06-09T22:16:08.338Z,9.37
2018-06-09T22:18:37.070Z,9.43
2018-06-09T22:21:05.339Z,9.27
2018-06-09T22:23:33.679Z,9.13
2018-06-09T22:26:02.056Z,8.83
2018-06-09T22:28:30.372Z,9.07
2018-06-09T22:30:58.654Z,8.60
2018-06-09T22:33:27.183Z,9.17
2018-06-09T22:35:55.463Z,8.80
2018-06-09T22:38:23.792Z,10.53
2018-06-09T22:40:52.094Z,10.03
2018-06-09T22:43:20.487Z,8.70
2018-06-09T22:45:48.784Z,9.30
2018-06-09T22:48:17.077Z,9.00
2018-06-09T22:50:45.414Z,9.60
2018-06-09T22:53:13.829Z,9.77
2018-06-09T22:55:42.131Z,11.00
2018-06-09T22:58:10.442Z,9.53
2018-06-09T23:00:47.442Z,10.10
2018-06-09T23:03:16.523Z,10.63
2018-06-09T23:05:45.221Z,10.40
2018-06-09T23:08:13.492Z,11.77
2018-06-09T23:10:41.795Z,12.77
2018-06-09T23:13:10.168Z,11.53
2018-06-09T23:15:38.458Z,14.13
2018-06-09T23:18:06.734Z,15.27
2018-06-09T23:20:35.035Z,23.63
2018-06-09T23:23:03.352Z,21.87
2018-06-09T23:25:31.654Z,19.17
2018-06-09T23:27:59.923Z,19.27
2018-06-09T23:30:28.258Z,24.27
2018-06-09T23:32:56.661Z,14.90
2018-06-09T23:35:24.981Z,15.07
2018-06-09T23:37:53.266Z,16.73
2018-06-09T23:40:21.583Z,16.33
2018-06-09T23:42:49.946Z,14.13
2018-06-09T23:45:18.238Z,14.13
2018-06-09T23:47:46.533Z,12.63
2018-06-09T23:50:14.939Z,13.90
2018-06-09T23:52:43.254Z,12.20
2018-06-09T23:55:11.619Z,12.57
2018-06-09T23:57:39.902Z,11.53
